ETSN

Neuburg Airport

Germany
METAR ETSN 120920Z 27005KT 9999 BKN014 BKN020 02/00 Q1022 GRN WHT TEMPO GRN
Observed Flight Rules
Dec-12 @ 09:20 UTC (23 minutes ago) Marginal Visual Flight Rules
Wind Visibility Clouds
270° at 5 knots 10,000+ meters
  • Broken at 1,400' AGL
  • Broken at 2,000' AGL
Temperatures Readings
Current 2°C / 36°F
Dewpoint 0°C / 32°F
Humidity 87%
Altimeter 30.18" Hg
Pressure 1022 hPa
Elevation 387
METAR ETSN 120920Z 27005KT 9999 BKN014 BKN020 02/00 Q1022 GRN WHT TEMPO GRN
Observed Flight Rules
Dec-12 @ 09:20 UTC
(23 minutes ago)
MVFR
Wind Visibility
270° at 5 knots 10,000+ meters
Clouds
  • Broken at 1,400' AGL
  • Broken at 2,000' AGL
Temperature Dewpoint
2°C / 36°F 0°C / 32°F
Humidity Altimeter Pressure
87% 30.18" Hg 1022 hPa